Time;durP1;ratioP1;P1;durP2;ratioP2;P2;SDS_P1;SDS_P2;PMS_P1;PMS_P2;Temp;Humidity;BMP_temperature;BMP_pressure;BME280_temperature;BME280_humidity;BME280_pressure;Samples;Min_cycle;Max_cycle;Signal;HPM_P1;HPM_P2
2022/06/16 00:02:19;;;;;;;11.48;5.95;;;;;;;;;;5059522;28;20044;-73
2022/06/16 00:04:46;;;;;;;10.18;5.35;;;;;;;;;;5071974;28;20500;-73
2022/06/16 00:07:13;;;;;;;9.30;5.70;;;;;;;;;;5071052;28;20032;-73
2022/06/16 00:09:39;;;;;;;7.13;4.82;;;;;;;;;;5064374;28;20041;-73
2022/06/16 00:12:05;;;;;;;11.65;6.00;;;;;;;;;;5056478;28;20497;-73
2022/06/16 00:14:32;;;;;;;9.20;6.13;;;;;;;;;;5060886;28;20431;-73
2022/06/16 00:16:58;;;;;;;7.90;5.20;;;;;;;;;;5053697;28;20043;-73
2022/06/16 00:19:24;;;;;;;10.98;6.15;;;;;;;;;;5070093;28;20040;-74
2022/06/16 00:21:50;;;;;;;9.73;5.82;;;;;;;;;;5060488;28;20496;-73
2022/06/16 00:24:16;;;;;;;10.48;6.50;;;;;;;;;;5070571;28;20154;-73
2022/06/16 00:26:42;;;;;;;8.45;5.88;;;;;;;;;;5071257;28;20044;-73
2022/06/16 00:29:09;;;;;;;9.98;5.88;;;;;;;;;;5050761;28;20044;-73
2022/06/16 00:31:35;;;;;;;11.45;5.80;;;;;;;;;;5033510;28;20045;-73
2022/06/16 00:34:01;;;;;;;9.45;5.85;;;;;;;;;;5049855;28;20041;-72
2022/06/16 00:36:27;;;;;;;9.35;5.88;;;;;;;;;;5060792;28;20107;-73
2022/06/16 00:38:53;;;;;;;9.80;5.93;;;;;;;;;;5070284;28;20106;-73
2022/06/16 00:41:19;;;;;;;7.75;5.82;;;;;;;;;;5063847;28;20412;-73
2022/06/16 00:43:46;;;;;;;10.18;6.15;;;;;;;;;;5049724;28;20501;-73
2022/06/16 00:46:17;;;;;;;9.30;5.45;;;;;;;;;;5071293;28;20119;-73
2022/06/16 00:48:51;;;;;;;9.93;5.50;;;;;;;;;;5071180;28;20041;-73
2022/06/16 00:51:32;;;;;;;9.70;5.80;;;;;;;;;;5093588;28;20133;-73
2022/06/16 00:54:02;;;;;;;14.25;5.65;;;;;;;;;;5060667;28;20040;-73
2022/06/16 00:56:29;;;;;;;11.75;6.28;;;;;;;;;;5069687;28;20068;-73
2022/06/16 00:58:58;;;;;;;11.07;5.20;;;;;;;;;;5053181;28;20198;-73
2022/06/16 01:01:25;;;;;;;10.27;5.25;;;;;;;;;;5071408;28;20106;-73
2022/06/16 01:06:36;;;;;;;7.90;4.90;;;;;;;;;;5065299;28;20044;-73
2022/06/16 01:09:28;;;;;;;9.68;5.35;;;;;;;;;;5073258;28;20044;-73
2022/06/16 01:14:45;;;;;;;9.25;5.65;;;;;;;;;;5062869;28;20106;-73
2022/06/16 01:17:24;;;;;;;9.02;5.40;;;;;;;;;;5056925;28;20052;-73
2022/06/16 01:19:58;;;;;;;9.68;5.78;;;;;;;;;;5073054;28;20044;-73
2022/06/16 01:22:47;;;;;;;9.50;5.75;;;;;;;;;;5074591;28;20044;-73
2022/06/16 01:25:32;;;;;;;11.07;6.68;;;;;;;;;;5056286;28;20094;-73
2022/06/16 01:28:19;;;;;;;9.52;6.28;;;;;;;;;;5030932;28;20055;-73
2022/06/16 01:30:54;;;;;;;12.20;7.13;;;;;;;;;;5072024;28;20051;-73
2022/06/16 01:33:25;;;;;;;11.10;6.78;;;;;;;;;;5073695;28;20492;-74
2022/06/16 01:35:59;;;;;;;11.38;7.05;;;;;;;;;;5054982;28;20041;-73
2022/06/16 01:38:30;;;;;;;9.02;5.90;;;;;;;;;;5073200;28;20040;-73
2022/06/16 01:41:06;;;;;;;10.35;6.43;;;;;;;;;;5072395;28;20048;-73
2022/06/16 01:43:34;;;;;;;9.70;6.30;;;;;;;;;;5072832;28;20064;-73
2022/06/16 01:46:12;;;;;;;9.82;6.38;;;;;;;;;;5056856;28;20509;-73
2022/06/16 01:48:41;;;;;;;12.68;7.53;;;;;;;;;;5072677;28;20044;-73
2022/06/16 01:51:11;;;;;;;12.18;6.85;;;;;;;;;;5061139;28;20405;-73
2022/06/16 01:53:40;;;;;;;8.85;5.10;;;;;;;;;;5073043;28;20055;-73
2022/06/16 01:56:10;;;;;;;9.55;6.07;;;;;;;;;;5060016;28;20044;-73
2022/06/16 01:58:37;;;;;;;9.73;5.40;;;;;;;;;;5072232;28;20054;-73
2022/06/16 02:01:07;;;;;;;7.90;5.10;;;;;;;;;;5062138;28;20096;-73
2022/06/16 02:03:36;;;;;;;9.48;5.43;;;;;;;;;;5062710;28;20067;-73
2022/06/16 02:06:31;;;;;;;10.90;6.43;;;;;;;;;;5052709;28;20408;-73
2022/06/16 02:09:00;;;;;;;11.43;6.75;;;;;;;;;;5032124;28;20124;-73
2022/06/16 02:11:29;;;;;;;9.70;6.60;;;;;;;;;;5053511;28;20491;-73
2022/06/16 02:13:59;;;;;;;10.82;6.85;;;;;;;;;;5052033;28;20123;-73
2022/06/16 02:16:28;;;;;;;12.05;6.85;;;;;;;;;;5035059;28;20071;-73
2022/06/16 02:18:55;;;;;;;12.60;7.00;;;;;;;;;;5052153;28;20037;-73
2022/06/16 02:21:34;;;;;;;11.43;8.07;;;;;;;;;;5052123;28;20045;-73
2022/06/16 02:24:00;;;;;;;9.88;7.22;;;;;;;;;;5051075;28;20119;-73
2022/06/16 02:26:27;;;;;;;12.05;7.10;;;;;;;;;;5051822;28;20041;-74
2022/06/16 02:28:55;;;;;;;12.00;5.80;;;;;;;;;;5035219;28;20090;-73
2022/06/16 02:31:32;;;;;;;11.20;6.55;;;;;;;;;;5051970;28;20119;-73
2022/06/16 02:34:34;;;;;;;13.57;6.72;;;;;;;;;;5034884;28;20036;-73
2022/06/16 02:37:03;;;;;;;10.30;6.80;;;;;;;;;;5013365;28;20042;-74
2022/06/16 02:39:38;;;;;;;10.85;6.72;;;;;;;;;;5069454;28;20112;-73
2022/06/16 02:42:04;;;;;;;11.15;6.97;;;;;;;;;;5051809;28;20401;-73
2022/06/16 02:44:46;;;;;;;11.10;6.20;;;;;;;;;;5051497;28;20124;-73
2022/06/16 02:47:12;;;;;;;11.02;6.70;;;;;;;;;;5051440;28;20048;-74
2022/06/16 02:49:57;;;;;;;13.23;7.03;;;;;;;;;;5050465;28;20032;-73
2022/06/16 02:52:40;;;;;;;14.45;6.50;;;;;;;;;;5052305;28;20033;-73
2022/06/16 02:55:10;;;;;;;10.98;6.65;;;;;;;;;;5051672;28;20428;-73
2022/06/16 02:57:41;;;;;;;9.75;6.20;;;;;;;;;;5051207;28;20052;-73
2022/06/16 03:00:12;;;;;;;11.27;6.78;;;;;;;;;;5056219;28;20040;-73
2022/06/16 03:02:40;;;;;;;10.90;6.80;;;;;;;;;;5072482;28;20040;-73
2022/06/16 03:05:07;;;;;;;12.82;7.00;;;;;;;;;;5070817;28;20072;-73
2022/06/16 03:07:34;;;;;;;11.15;6.65;;;;;;;;;;5071044;28;20040;-73
2022/06/16 03:10:04;;;;;;;10.50;6.85;;;;;;;;;;5057121;28;20534;-73
2022/06/16 03:12:30;;;;;;;9.93;6.80;;;;;;;;;;5071373;28;20042;-74
2022/06/16 03:14:56;;;;;;;13.13;6.15;;;;;;;;;;5071088;28;20054;-74
2022/06/16 03:17:23;;;;;;;10.93;6.95;;;;;;;;;;5071415;28;20049;-73
2022/06/16 03:19:49;;;;;;;10.57;6.82;;;;;;;;;;5061004;28;20401;-73
2022/06/16 03:22:18;;;;;;;13.43;7.53;;;;;;;;;;5066900;28;20835;-73
2022/06/16 03:24:44;;;;;;;9.82;6.45;;;;;;;;;;5062546;28;20182;-73
2022/06/16 03:27:10;;;;;;;13.30;7.05;;;;;;;;;;5070949;28;20393;-73
2022/06/16 03:29:36;;;;;;;9.23;5.63;;;;;;;;;;5062783;28;20056;-73
2022/06/16 03:32:03;;;;;;;11.63;7.20;;;;;;;;;;5049421;28;20077;-73
2022/06/16 03:34:30;;;;;;;11.95;6.95;;;;;;;;;;5054634;28;20511;-73
2022/06/16 03:36:56;;;;;;;10.23;7.00;;;;;;;;;;5070323;28;20071;-73
2022/06/16 03:39:22;;;;;;;14.55;7.40;;;;;;;;;;5072132;28;20070;-73
2022/06/16 03:41:49;;;;;;;9.70;6.95;;;;;;;;;;5065335;28;20396;-73
2022/06/16 03:44:18;;;;;;;10.85;7.03;;;;;;;;;;5072220;28;20051;-73
2022/06/16 03:46:44;;;;;;;10.77;6.93;;;;;;;;;;5072122;28;20041;-73
2022/06/16 03:49:10;;;;;;;10.35;7.20;;;;;;;;;;5053541;28;20033;-73
2022/06/16 03:51:36;;;;;;;11.90;7.95;;;;;;;;;;5068113;28;20160;-73
2022/06/16 03:54:03;;;;;;;14.18;7.80;;;;;;;;;;5070685;28;20040;-73
2022/06/16 03:56:29;;;;;;;11.45;8.23;;;;;;;;;;5054102;28;20051;-73
2022/06/16 03:58:55;;;;;;;12.75;7.60;;;;;;;;;;5070383;28;20037;-73
2022/06/16 04:01:22;;;;;;;12.60;7.88;;;;;;;;;;5043443;28;20051;-73
2022/06/16 04:04:00;;;;;;;13.63;8.02;;;;;;;;;;5059535;28;20037;-73
2022/06/16 04:06:26;;;;;;;12.57;8.15;;;;;;;;;;5049794;28;20120;-73
2022/06/16 04:08:52;;;;;;;12.15;7.90;;;;;;;;;;5050436;28;20116;-73
2022/06/16 04:11:27;;;;;;;15.45;8.52;;;;;;;;;;5050281;28;20041;-74
2022/06/16 04:13:54;;;;;;;12.53;8.30;;;;;;;;;;5033705;28;20075;-74
2022/06/16 04:16:20;;;;;;;13.15;8.38;;;;;;;;;;5034221;28;20056;-73
2022/06/16 04:18:46;;;;;;;11.80;7.95;;;;;;;;;;5050546;28;20487;-73
2022/06/16 04:21:13;;;;;;;14.07;8.90;;;;;;;;;;5013767;28;20045;-73
2022/06/16 04:23:40;;;;;;;17.58;9.27;;;;;;;;;;5047953;28;20389;-74
2022/06/16 04:26:06;;;;;;;13.48;9.48;;;;;;;;;;5051233;28;20048;-75
2022/06/16 04:28:32;;;;;;;15.13;9.93;;;;;;;;;;5050762;28;20401;-74
2022/06/16 04:30:59;;;;;;;14.00;9.25;;;;;;;;;;5050008;28;20110;-75
2022/06/16 04:33:25;;;;;;;15.23;8.65;;;;;;;;;;5049998;28;20083;-74
2022/06/16 04:35:52;;;;;;;12.10;8.27;;;;;;;;;;5050083;28;20045;-74
2022/06/16 04:38:19;;;;;;;11.80;8.00;;;;;;;;;;5049178;28;20045;-74
2022/06/16 04:40:45;;;;;;;12.77;8.70;;;;;;;;;;5051150;28;20041;-74
2022/06/16 04:43:14;;;;;;;15.25;8.82;;;;;;;;;;5053386;28;20428;-74
2022/06/16 04:45:41;;;;;;;14.00;8.73;;;;;;;;;;5053804;28;20073;-74
2022/06/16 04:48:07;;;;;;;11.88;8.38;;;;;;;;;;5053412;28;20037;-73
2022/06/16 04:50:34;;;;;;;14.15;9.05;;;;;;;;;;5053817;28;20045;-73
2022/06/16 04:53:00;;;;;;;14.00;9.40;;;;;;;;;;5086433;28;20032;-74
2022/06/16 04:55:26;;;;;;;15.23;9.38;;;;;;;;;;5036981;28;20087;-73
2022/06/16 04:57:54;;;;;;;15.25;10.18;;;;;;;;;;5054057;28;20078;-74
2022/06/16 05:00:21;;;;;;;16.05;9.82;;;;;;;;;;5074303;28;20512;-73
2022/06/16 05:02:47;;;;;;;18.30;10.48;;;;;;;;;;5065353;28;20049;-74
2022/06/16 05:05:13;;;;;;;15.77;9.73;;;;;;;;;;5066625;28;20068;-74
2022/06/16 05:07:39;;;;;;;16.23;10.02;;;;;;;;;;5073034;28;20563;-73
2022/06/16 05:10:06;;;;;;;16.45;10.88;;;;;;;;;;5068971;28;20137;-74
2022/06/16 05:12:32;;;;;;;14.40;9.27;;;;;;;;;;5065410;28;20044;-74
2022/06/16 05:14:58;;;;;;;13.65;9.82;;;;;;;;;;5060108;28;20135;-76
2022/06/16 05:17:24;;;;;;;14.38;9.55;;;;;;;;;;5052943;28;20083;-74
2022/06/16 05:19:50;;;;;;;15.32;10.07;;;;;;;;;;5053983;28;20037;-74
2022/06/16 05:22:17;;;;;;;15.88;9.30;;;;;;;;;;5051019;28;20133;-74
2022/06/16 05:24:43;;;;;;;15.90;9.30;;;;;;;;;;5035194;28;20046;-74
2022/06/16 05:27:10;;;;;;;16.13;9.70;;;;;;;;;;5034784;28;20091;-74
2022/06/16 05:29:36;;;;;;;14.77;9.10;;;;;;;;;;5053602;28;20528;-74
2022/06/16 05:32:03;;;;;;;13.27;8.65;;;;;;;;;;5053933;28;20037;-74
2022/06/16 05:34:29;;;;;;;12.27;8.68;;;;;;;;;;5054500;28;20056;-74
2022/06/16 05:36:55;;;;;;;10.80;8.48;;;;;;;;;;5057798;28;20040;-74
2022/06/16 05:39:21;;;;;;;13.50;8.43;;;;;;;;;;5052451;28;20045;-74
2022/06/16 05:41:47;;;;;;;11.43;7.45;;;;;;;;;;5053184;28;20045;-74
2022/06/16 05:44:14;;;;;;;11.57;6.88;;;;;;;;;;5052339;28;20041;-74
2022/06/16 05:46:40;;;;;;;10.98;7.45;;;;;;;;;;5054469;28;20033;-74
2022/06/16 05:49:06;;;;;;;10.88;6.15;;;;;;;;;;5053341;28;20048;-74
2022/06/16 05:51:33;;;;;;;8.85;6.22;;;;;;;;;;5053938;28;20033;-74
2022/06/16 05:53:59;;;;;;;10.00;6.00;;;;;;;;;;5084962;28;20052;-74
2022/06/16 05:56:25;;;;;;;11.95;6.00;;;;;;;;;;5085095;28;20045;-74
2022/06/16 05:58:54;;;;;;;10.07;6.22;;;;;;;;;;5061187;28;20095;-74
2022/06/16 06:01:20;;;;;;;9.68;5.25;;;;;;;;;;5071761;28;20044;-74
2022/06/16 06:03:46;;;;;;;8.68;5.45;;;;;;;;;;5072302;28;20123;-74
2022/06/16 06:06:12;;;;;;;8.98;5.47;;;;;;;;;;5058581;28;20045;-74
2022/06/16 06:17:06;;;;;;;8.80;5.22;;;;;;;;;;5061084;28;20123;-73
2022/06/16 06:19:32;;;;;;;8.15;4.90;;;;;;;;;;5070392;28;20040;-73
2022/06/16 06:21:58;;;;;;;6.18;3.42;;;;;;;;;;5062023;28;20033;-73
2022/06/16 06:24:25;;;;;;;6.90;2.75;;;;;;;;;;5068151;28;20044;-73
2022/06/16 06:26:52;;;;;;;6.28;3.35;;;;;;;;;;5063361;28;20032;-74
2022/06/16 06:29:18;;;;;;;5.05;3.25;;;;;;;;;;5055834;28;20485;-74
2022/06/16 06:31:44;;;;;;;7.43;3.70;;;;;;;;;;5057793;28;20044;-73
2022/06/16 06:34:10;;;;;;;6.93;3.92;;;;;;;;;;5048089;28;20079;-73
2022/06/16 06:36:36;;;;;;;6.35;3.40;;;;;;;;;;5072859;28;20066;-73
2022/06/16 06:39:02;;;;;;;5.63;3.08;;;;;;;;;;5070961;28;20141;-73
2022/06/16 06:41:28;;;;;;;4.15;1.85;;;;;;;;;;5063590;28;20040;-73
2022/06/16 06:43:54;;;;;;;3.13;2.00;;;;;;;;;;5054954;28;20052;-73
2022/06/16 06:46:20;;;;;;;3.30;1.70;;;;;;;;;;5071503;28;20050;-73
2022/06/16 06:48:46;;;;;;;3.55;2.08;;;;;;;;;;5073381;28;20425;-73
2022/06/16 06:51:13;;;;;;;4.05;2.38;;;;;;;;;;5058512;28;20369;-74
2022/06/16 06:53:39;;;;;;;4.35;2.10;;;;;;;;;;5055352;28;20090;-73
2022/06/16 06:56:05;;;;;;;4.88;2.00;;;;;;;;;;5071323;28;20053;-73
2022/06/16 06:58:34;;;;;;;3.38;1.90;;;;;;;;;;5071678;28;20587;-73
2022/06/16 07:01:01;;;;;;;3.55;1.80;;;;;;;;;;5054220;28;20075;-73
2022/06/16 07:03:28;;;;;;;4.10;2.03;;;;;;;;;;5063546;28;20075;-73
2022/06/16 07:05:54;;;;;;;3.10;1.67;;;;;;;;;;5072340;28;20369;-73
2022/06/16 07:08:20;;;;;;;3.72;1.38;;;;;;;;;;5050686;28;20041;-74
2022/06/16 07:10:46;;;;;;;3.03;1.40;;;;;;;;;;5071131;28;20032;-75
2022/06/16 07:13:12;;;;;;;3.88;1.30;;;;;;;;;;5056052;28;20478;-75
2022/06/16 07:15:38;;;;;;;2.95;1.48;;;;;;;;;;5061628;28;20574;-74
2022/06/16 07:18:06;;;;;;;4.40;1.92;;;;;;;;;;5060219;28;20178;-74
2022/06/16 07:20:32;;;;;;;3.47;1.60;;;;;;;;;;5065557;28;20072;-74
2022/06/16 07:22:58;;;;;;;3.55;1.80;;;;;;;;;;5050715;28;20397;-74
2022/06/16 07:25:25;;;;;;;4.45;2.00;;;;;;;;;;5050439;28;20586;-74
2022/06/16 07:27:53;;;;;;;4.22;2.00;;;;;;;;;;5050098;28;20037;-74
2022/06/16 07:30:19;;;;;;;5.18;2.20;;;;;;;;;;5043887;28;20055;-74
2022/06/16 07:32:46;;;;;;;4.53;1.70;;;;;;;;;;5050662;28;20029;-74
2022/06/16 07:35:13;;;;;;;3.53;1.98;;;;;;;;;;5033779;28;20045;-74
2022/06/16 07:37:39;;;;;;;6.10;1.80;;;;;;;;;;5050984;28;20037;-74
2022/06/16 07:40:06;;;;;;;2.58;1.40;;;;;;;;;;5033600;28;20045;-74
2022/06/16 07:42:33;;;;;;;2.85;1.30;;;;;;;;;;5050289;28;20049;-74
2022/06/16 07:45:00;;;;;;;3.10;1.40;;;;;;;;;;5050496;28;20049;-74
2022/06/16 07:47:27;;;;;;;3.60;1.30;;;;;;;;;;5050519;28;20072;-74
2022/06/16 07:49:53;;;;;;;3.63;1.00;;;;;;;;;;5067429;28;20041;-75
2022/06/16 07:52:20;;;;;;;2.25;1.10;;;;;;;;;;5049132;28;20501;-75
2022/06/16 07:54:46;;;;;;;2.50;0.90;;;;;;;;;;5050505;28;20037;-75
2022/06/16 07:57:13;;;;;;;2.55;1.10;;;;;;;;;;5050381;28;20041;-75
2022/06/16 07:59:39;;;;;;;2.80;1.08;;;;;;;;;;5066748;28;20043;-75
2022/06/16 08:02:05;;;;;;;3.60;1.08;;;;;;;;;;5036255;28;20044;-75
2022/06/16 08:04:34;;;;;;;3.17;1.20;;;;;;;;;;5049327;28;20043;-75
2022/06/16 08:07:00;;;;;;;2.65;1.20;;;;;;;;;;5033422;28;20409;-75
2022/06/16 08:09:31;;;;;;;3.20;1.00;;;;;;;;;;5033571;28;20126;-75
2022/06/16 08:12:04;;;;;;;4.13;1.30;;;;;;;;;;5049967;28;20118;-75
2022/06/16 08:14:30;;;;;;;2.80;1.00;;;;;;;;;;5049813;28;20481;-75
2022/06/16 08:16:56;;;;;;;3.40;1.42;;;;;;;;;;5054434;28;20055;-75
2022/06/16 08:19:22;;;;;;;4.30;1.20;;;;;;;;;;5055244;28;20068;-75
2022/06/16 08:21:49;;;;;;;3.30;1.20;;;;;;;;;;5054334;28;20048;-75
2022/06/16 08:24:15;;;;;;;3.20;1.30;;;;;;;;;;5053583;28;20393;-75
2022/06/16 08:26:42;;;;;;;3.45;1.45;;;;;;;;;;5054315;28;20049;-75
2022/06/16 08:29:10;;;;;;;4.32;1.95;;;;;;;;;;5054103;28;20116;-75
2022/06/16 08:31:36;;;;;;;3.67;1.70;;;;;;;;;;5036945;28;20095;-75
2022/06/16 08:34:03;;;;;;;4.80;1.50;;;;;;;;;;5053364;28;20037;-75
2022/06/16 08:36:29;;;;;;;3.42;1.52;;;;;;;;;;5053749;28;20509;-75
2022/06/16 08:38:55;;;;;;;3.25;1.60;;;;;;;;;;5054026;28;20049;-75
2022/06/16 08:41:28;;;;;;;4.20;1.67;;;;;;;;;;5054325;28;20519;-75
2022/06/16 08:44:01;;;;;;;3.25;1.80;;;;;;;;;;5036094;28;20049;-75
2022/06/16 08:46:32;;;;;;;5.43;2.10;;;;;;;;;;5053234;28;20075;-75
2022/06/16 08:49:18;;;;;;;4.70;1.90;;;;;;;;;;5081549;28;20075;-75
2022/06/16 08:51:52;;;;;;;4.28;2.65;;;;;;;;;;5043750;28;20033;-75
2022/06/16 08:54:33;;;;;;;3.60;1.80;;;;;;;;;;5048988;28;20041;-75
2022/06/16 08:57:08;;;;;;;4.05;2.17;;;;;;;;;;5076767;28;20048;-75
2022/06/16 08:59:37;;;;;;;3.92;2.20;;;;;;;;;;5067963;28;20044;-75
2022/06/16 09:02:08;;;;;;;3.50;1.83;;;;;;;;;;5072644;28;20086;-75
2022/06/16 09:04:48;;;;;;;5.22;2.30;;;;;;;;;;5057961;28;20044;-74
2022/06/16 09:07:27;;;;;;;3.60;2.10;;;;;;;;;;5049291;28;20108;-75
2022/06/16 09:10:14;;;;;;;6.50;2.97;;;;;;;;;;5053634;28;20056;-75
2022/06/16 09:12:43;;;;;;;3.33;1.70;;;;;;;;;;5052674;28;20060;-74
2022/06/16 09:15:28;;;;;;;6.03;2.30;;;;;;;;;;5052942;28;20047;-75
2022/06/16 09:17:54;;;;;;;4.20;2.08;;;;;;;;;;5052796;28;20040;-75
2022/06/16 09:20:30;;;;;;;4.32;1.92;;;;;;;;;;5052940;28;20132;-75
2022/06/16 09:23:03;;;;;;;3.58;2.20;;;;;;;;;;5054790;28;20072;-75
2022/06/16 09:25:35;;;;;;;4.78;2.55;;;;;;;;;;5052288;28;20029;-75
2022/06/16 09:28:08;;;;;;;4.97;2.35;;;;;;;;;;5051901;28;20099;-75
2022/06/16 09:30:38;;;;;;;3.83;2.03;;;;;;;;;;5053973;28;20048;-74
2022/06/16 09:33:11;;;;;;;4.93;2.20;;;;;;;;;;5036770;28;20116;-75
2022/06/16 09:35:43;;;;;;;5.10;2.10;;;;;;;;;;5052310;28;20064;-74
2022/06/16 09:38:32;;;;;;;4.30;2.35;;;;;;;;;;5052493;28;20047;-74
2022/06/16 09:44:05;;;;;;;5.38;1.92;;;;;;;;;;5048449;28;20665;-74
2022/06/16 09:46:35;;;;;;;5.15;1.75;;;;;;;;;;5051499;28;20079;-74
2022/06/16 09:49:01;;;;;;;6.10;2.20;;;;;;;;;;5051196;28;20163;-74
2022/06/16 09:51:40;;;;;;;5.63;2.13;;;;;;;;;;5052506;28;20077;-74
2022/06/16 09:54:18;;;;;;;3.88;1.90;;;;;;;;;;5052782;28;20059;-74
2022/06/16 09:56:48;;;;;;;8.60;2.40;;;;;;;;;;5051522;28;20083;-74
2022/06/16 09:59:22;;;;;;;7.93;2.20;;;;;;;;;;5060691;28;20037;-74
2022/06/16 10:01:51;;;;;;;3.70;2.20;;;;;;;;;;5067160;28;20093;-74
2022/06/16 10:04:17;;;;;;;5.32;2.10;;;;;;;;;;5107041;28;20048;-74
2022/06/16 10:06:54;;;;;;;3.80;2.03;;;;;;;;;;5044168;28;20033;-74
2022/06/16 10:09:39;;;;;;;5.05;2.10;;;;;;;;;;5070897;28;20036;-74
2022/06/16 10:12:14;;;;;;;4.63;2.15;;;;;;;;;;5072295;28;20047;-74
2022/06/16 10:14:40;;;;;;;4.43;2.15;;;;;;;;;;5060799;28;20050;-73
2022/06/16 10:17:08;;;;;;;5.10;2.45;;;;;;;;;;5070295;28;20056;-73
2022/06/16 10:19:38;;;;;;;3.30;1.90;;;;;;;;;;5062735;28;20468;-73
2022/06/16 10:22:04;;;;;;;4.78;2.10;;;;;;;;;;5071095;28;20053;-73
2022/06/16 10:24:36;;;;;;;6.18;2.00;;;;;;;;;;5069427;28;20063;-75
2022/06/16 10:27:03;;;;;;;5.53;2.60;;;;;;;;;;5072362;28;20489;-75
2022/06/16 10:29:31;;;;;;;4.35;2.40;;;;;;;;;;5065033;28;20037;-75
2022/06/16 10:31:58;;;;;;;5.40;2.10;;;;;;;;;;5066905;28;20052;-75
2022/06/16 10:34:44;;;;;;;6.35;2.28;;;;;;;;;;5065899;28;20123;-75
2022/06/16 10:37:10;;;;;;;5.55;2.20;;;;;;;;;;5050865;28;20048;-74
2022/06/16 10:39:42;;;;;;;4.93;2.53;;;;;;;;;;5068373;28;20053;-74
2022/06/16 10:42:14;;;;;;;4.95;2.50;;;;;;;;;;5068004;28;20048;-74
2022/06/16 10:44:41;;;;;;;5.40;2.78;;;;;;;;;;5068995;28;20501;-74
2022/06/16 10:47:08;;;;;;;5.05;3.20;;;;;;;;;;5060795;28;20049;-75
2022/06/16 10:49:35;;;;;;;8.60;3.85;;;;;;;;;;5051483;28;20040;-76
2022/06/16 10:52:14;;;;;;;6.13;2.78;;;;;;;;;;5053123;28;20131;-75
2022/06/16 10:54:44;;;;;;;7.05;3.05;;;;;;;;;;5051778;28;20110;-76
2022/06/16 10:57:17;;;;;;;5.68;2.70;;;;;;;;;;5051011;28;20045;-76
2022/06/16 10:59:47;;;;;;;4.25;2.63;;;;;;;;;;5065930;28;20044;-75
2022/06/16 11:02:25;;;;;;;4.78;3.05;;;;;;;;;;5071257;28;20086;-75
2022/06/16 11:05:03;;;;;;;5.03;2.50;;;;;;;;;;5064866;28;20398;-75
2022/06/16 11:07:35;;;;;;;6.00;3.42;;;;;;;;;;5062027;28;20125;-75
2022/06/16 11:10:03;;;;;;;5.60;2.60;;;;;;;;;;5063493;28;20084;-75
2022/06/16 11:12:29;;;;;;;5.88;2.50;;;;;;;;;;5070971;28;20094;-75
2022/06/16 11:14:57;;;;;;;4.22;2.70;;;;;;;;;;5056770;28;20413;-74
2022/06/16 11:17:26;;;;;;;3.92;2.70;;;;;;;;;;5059611;28;20064;-75
2022/06/16 11:19:58;;;;;;;3.45;2.38;;;;;;;;;;5070898;28;20045;-74
2022/06/16 11:22:30;;;;;;;5.60;2.70;;;;;;;;;;5071302;28;20087;-75
2022/06/16 11:25:18;;;;;;;5.85;2.50;;;;;;;;;;5059809;28;20048;-74
2022/06/16 11:27:49;;;;;;;3.83;2.15;;;;;;;;;;5085449;28;20040;-75
2022/06/16 11:30:27;;;;;;;5.38;2.88;;;;;;;;;;5028858;28;20041;-75
2022/06/16 11:32:53;;;;;;;4.18;2.53;;;;;;;;;;5050929;28;20421;-74
2022/06/16 11:35:20;;;;;;;4.78;2.65;;;;;;;;;;5050922;28;20044;-74
2022/06/16 11:37:57;;;;;;;3.78;2.50;;;;;;;;;;5050161;28;20041;-74
2022/06/16 11:40:23;;;;;;;4.30;2.42;;;;;;;;;;5051080;28;20079;-74
2022/06/16 11:43:04;;;;;;;4.95;2.42;;;;;;;;;;5049966;28;20100;-74
2022/06/16 11:45:33;;;;;;;5.85;2.22;;;;;;;;;;5050969;28;20095;-76
2022/06/16 11:48:06;;;;;;;4.53;2.45;;;;;;;;;;5050953;28;20541;-75
2022/06/16 11:50:32;;;;;;;4.10;2.40;;;;;;;;;;5050354;28;20060;-75
2022/06/16 11:53:01;;;;;;;5.50;2.50;;;;;;;;;;5049957;28;20037;-75
2022/06/16 11:55:30;;;;;;;5.93;2.30;;;;;;;;;;5050151;28;20072;-75
2022/06/16 11:58:02;;;;;;;7.10;2.90;;;;;;;;;;5050571;28;20674;-75
2022/06/16 12:00:28;;;;;;;4.90;2.03;;;;;;;;;;5071097;28;20052;-75
2022/06/16 12:02:58;;;;;;;4.78;2.08;;;;;;;;;;5104269;28;20033;-75
2022/06/16 12:05:56;;;;;;;4.65;2.08;;;;;;;;;;5026662;28;20075;-75
2022/06/16 12:08:24;;;;;;;4.57;2.38;;;;;;;;;;5051456;28;20041;-73
2022/06/16 12:11:10;;;;;;;4.53;2.67;;;;;;;;;;5032474;28;20037;-74
2022/06/16 12:13:43;;;;;;;5.07;2.33;;;;;;;;;;5050396;28;20048;-73
2022/06/16 12:16:15;;;;;;;5.43;2.60;;;;;;;;;;5050090;28;20037;-74
2022/06/16 12:18:42;;;;;;;5.15;2.03;;;;;;;;;;5081163;28;20130;-75
2022/06/16 12:21:08;;;;;;;5.97;2.58;;;;;;;;;;5049246;28;20043;-74
2022/06/16 12:23:52;;;;;;;6.00;2.28;;;;;;;;;;5050968;28;20037;-75
2022/06/16 12:26:21;;;;;;;5.90;2.20;;;;;;;;;;5049986;28;20071;-74
2022/06/16 12:28:58;;;;;;;4.55;2.40;;;;;;;;;;5048417;28;20044;-74
2022/06/16 12:31:34;;;;;;;5.15;2.70;;;;;;;;;;5050584;28;20482;-74
2022/06/16 12:34:03;;;;;;;5.32;2.63;;;;;;;;;;5025297;28;20049;-74
2022/06/16 12:36:36;;;;;;;6.18;2.63;;;;;;;;;;5051420;28;20064;-75
2022/06/16 12:39:16;;;;;;;4.72;2.78;;;;;;;;;;5050126;28;20557;-74
2022/06/16 12:41:46;;;;;;;5.93;2.60;;;;;;;;;;5050054;28;20048;-74
2022/06/16 12:44:18;;;;;;;5.88;2.67;;;;;;;;;;5049745;28;20049;-74
2022/06/16 12:46:50;;;;;;;4.88;2.65;;;;;;;;;;5049779;28;20393;-75
2022/06/16 12:49:28;;;;;;;6.72;2.75;;;;;;;;;;5049958;28;20558;-74
2022/06/16 12:52:00;;;;;;;4.82;2.67;;;;;;;;;;5049393;28;20048;-74
2022/06/16 12:54:50;;;;;;;7.30;2.70;;;;;;;;;;5032841;28;20460;-75
2022/06/16 12:57:18;;;;;;;5.65;2.75;;;;;;;;;;5048191;28;20052;-74
2022/06/16 12:59:47;;;;;;;6.22;2.80;;;;;;;;;;5035227;28;20182;-75
2022/06/16 13:02:19;;;;;;;5.68;2.63;;;;;;;;;;5058174;28;20510;-74
2022/06/16 13:04:46;;;;;;;8.38;3.10;;;;;;;;;;5063639;28;20037;-75
2022/06/16 13:07:18;;;;;;;5.78;2.60;;;;;;;;;;5068006;28;20033;-74
2022/06/16 13:09:44;;;;;;;4.75;2.95;;;;;;;;;;5056243;28;20393;-74
2022/06/16 13:12:18;;;;;;;4.03;2.70;;;;;;;;;;5052377;28;20044;-74
2022/06/16 13:14:58;;;;;;;4.72;2.60;;;;;;;;;;5056971;28;20041;-74
2022/06/16 13:17:27;;;;;;;6.65;3.20;;;;;;;;;;5053060;28;20068;-74
2022/06/16 13:19:56;;;;;;;6.47;3.00;;;;;;;;;;5053121;28;20041;-74
2022/06/16 13:22:43;;;;;;;6.15;2.90;;;;;;;;;;5050663;28;20382;-74
2022/06/16 13:25:17;;;;;;;4.55;3.03;;;;;;;;;;5052283;28;20041;-74
2022/06/16 13:27:53;;;;;;;4.88;2.47;;;;;;;;;;5049928;28;20171;-74
2022/06/16 13:30:19;;;;;;;5.60;2.80;;;;;;;;;;5052140;28;20048;-75
2022/06/16 13:32:48;;;;;;;6.53;3.00;;;;;;;;;;5051834;28;20036;-74
2022/06/16 13:35:14;;;;;;;4.93;2.65;;;;;;;;;;5052557;28;20094;-74
2022/06/16 13:37:51;;;;;;;5.22;2.63;;;;;;;;;;5035343;28;20110;-74
2022/06/16 13:40:22;;;;;;;5.20;2.42;;;;;;;;;;5058015;28;20481;-74
2022/06/16 13:42:51;;;;;;;5.18;3.28;;;;;;;;;;5052627;28;20045;-74
2022/06/16 13:45:26;;;;;;;5.18;3.20;;;;;;;;;;5052063;28;20049;-74
2022/06/16 13:48:08;;;;;;;5.25;3.28;;;;;;;;;;5054793;28;20088;-74
2022/06/16 13:50:40;;;;;;;6.75;3.50;;;;;;;;;;5037886;28;20048;-74
2022/06/16 13:53:07;;;;;;;6.95;3.40;;;;;;;;;;5052552;28;20036;-74
2022/06/16 13:55:34;;;;;;;5.70;3.00;;;;;;;;;;5052650;28;20041;-74
2022/06/16 13:58:13;;;;;;;7.07;3.28;;;;;;;;;;5051866;28;20045;-74
2022/06/16 14:00:40;;;;;;;6.18;3.10;;;;;;;;;;5054921;28;20041;-74
2022/06/16 14:03:15;;;;;;;6.38;3.10;;;;;;;;;;5055903;28;20044;-74
2022/06/16 14:05:49;;;;;;;5.85;3.42;;;;;;;;;;5042400;28;20488;-74
2022/06/16 14:08:16;;;;;;;5.22;3.05;;;;;;;;;;5062689;28;20505;-75
2022/06/16 14:10:53;;;;;;;7.32;3.20;;;;;;;;;;5069809;28;20040;-75
2022/06/16 14:13:19;;;;;;;5.78;3.17;;;;;;;;;;5046768;28;20128;-74
2022/06/16 14:16:01;;;;;;;5.30;2.88;;;;;;;;;;5053056;28;20039;-74
2022/06/16 14:18:36;;;;;;;6.28;3.05;;;;;;;;;;5042974;28;20045;-75
2022/06/16 14:21:05;;;;;;;6.40;2.78;;;;;;;;;;5019734;28;20517;-75
2022/06/16 14:23:39;;;;;;;4.70;2.70;;;;;;;;;;5052285;28;20037;-75
2022/06/16 14:26:08;;;;;;;5.47;2.77;;;;;;;;;;5051536;28;20490;-76
2022/06/16 14:28:36;;;;;;;7.53;3.10;;;;;;;;;;5051121;28;20431;-75
2022/06/16 14:31:04;;;;;;;6.35;2.95;;;;;;;;;;5033846;28;20044;-75
2022/06/16 14:33:36;;;;;;;6.38;3.45;;;;;;;;;;5050918;28;20481;-75
2022/06/16 14:36:09;;;;;;;5.80;3.20;;;;;;;;;;5034141;28;20127;-75
2022/06/16 14:38:39;;;;;;;4.65;2.88;;;;;;;;;;5050688;28;20036;-76
2022/06/16 14:41:09;;;;;;;5.40;3.15;;;;;;;;;;5028161;28;20041;-76
2022/06/16 14:43:38;;;;;;;5.50;2.83;;;;;;;;;;5058301;28;20045;-76
2022/06/16 14:46:18;;;;;;;4.85;2.90;;;;;;;;;;5040553;28;20044;-74
2022/06/16 14:48:45;;;;;;;5.15;3.00;;;;;;;;;;5034835;28;20075;-75
2022/06/16 14:51:14;;;;;;;6.47;3.05;;;;;;;;;;5050633;28;20437;-74
2022/06/16 14:53:53;;;;;;;6.10;3.10;;;;;;;;;;5051205;28;20424;-74
2022/06/16 14:56:21;;;;;;;13.25;3.20;;;;;;;;;;5050760;28;20125;-75
2022/06/16 14:58:47;;;;;;;4.05;2.90;;;;;;;;;;5058759;28;20044;-75
2022/06/16 15:01:14;;;;;;;5.43;3.22;;;;;;;;;;5067051;28;20044;-74
2022/06/16 15:03:42;;;;;;;5.90;3.65;;;;;;;;;;5020892;28;20072;-74
2022/06/16 15:06:09;;;;;;;6.07;2.92;;;;;;;;;;5054184;28;20488;-76
2022/06/16 15:08:40;;;;;;;5.70;3.60;;;;;;;;;;5057919;28;20037;-75
2022/06/16 15:11:08;;;;;;;4.40;2.80;;;;;;;;;;5061967;28;20041;-76
2022/06/16 15:13:35;;;;;;;6.35;2.90;;;;;;;;;;5058161;28;20051;-76